Time;durP1;ratioP1;P1;durP2;ratioP2;P2;SDS_P1;SDS_P2;PMS_P1;PMS_P2;Temp;Humidity;BMP_temperature;BMP_pressure;BME280_temperature;BME280_humidity;BME280_pressure;Samples;Min_cycle;Max_cycle;Signal;HPM_P1;HPM_P2
2023/04/13 00:01:25;;;;;;;6.40;2.90;;;;;;;;;;5014043;28;20495;-83
2023/04/13 00:04:01;;;;;;;9.40;3.00;;;;;;;;;;5033567;28;20491;-83
2023/04/13 00:06:31;;;;;;;9.13;2.55;;;;;;;;;;5034495;28;20545;-83
2023/04/13 00:09:03;;;;;;;5.45;2.80;;;;;;;;;;5032943;28;20049;-83
2023/04/13 00:11:59;;;;;;;5.88;2.40;;;;;;;;;;5033547;28;20480;-83
2023/04/13 00:14:32;;;;;;;7.95;2.75;;;;;;;;;;5036129;28;20033;-83
2023/04/13 00:16:59;;;;;;;5.18;2.45;;;;;;;;;;5028572;28;20138;-83
2023/04/13 00:20:19;;;;;;;3.50;2.10;;;;;;;;;;5030109;28;20041;-84
2023/04/13 00:22:47;;;;;;;4.72;2.47;;;;;;;;;;5033970;28;20885;-83
2023/04/13 00:25:19;;;;;;;7.18;2.08;;;;;;;;;;5049763;28;20084;-83
2023/04/13 00:28:11;;;;;;;4.38;2.20;;;;;;;;;;5031044;28;20029;-83
2023/04/13 00:30:39;;;;;;;4.47;2.05;;;;;;;;;;5032178;28;20037;-83
2023/04/13 00:33:07;;;;;;;7.28;2.53;;;;;;;;;;5033462;28;20095;-83
2023/04/13 00:36:01;;;;;;;10.80;2.70;;;;;;;;;;5032331;28;20496;-83
2023/04/13 00:38:37;;;;;;;5.30;2.10;;;;;;;;;;5033179;28;20073;-83
2023/04/13 00:41:05;;;;;;;7.07;2.60;;;;;;;;;;5030671;28;20056;-83
2023/04/13 00:43:33;;;;;;;4.75;2.03;;;;;;;;;;5034862;28;20432;-83
2023/04/13 00:46:01;;;;;;;5.18;2.53;;;;;;;;;;5032918;28;20038;-83
2023/04/13 00:48:29;;;;;;;7.32;2.60;;;;;;;;;;5031626;28;20041;-83
2023/04/13 00:51:04;;;;;;;7.88;2.55;;;;;;;;;;5049829;28;20040;-83
2023/04/13 00:53:36;;;;;;;5.13;2.35;;;;;;;;;;5033792;28;20049;-83
2023/04/13 00:56:04;;;;;;;5.10;2.10;;;;;;;;;;5030378;28;20033;-83
2023/04/13 00:58:32;;;;;;;9.55;2.35;;;;;;;;;;5033313;28;20049;-83
2023/04/13 01:00:59;;;;;;;4.53;2.20;;;;;;;;;;5027107;28;20135;-83
2023/04/13 01:03:33;;;;;;;5.40;2.60;;;;;;;;;;5029048;28;20128;-83
2023/04/13 01:06:30;;;;;;;7.22;2.80;;;;;;;;;;4998290;28;20048;-83
2023/04/13 01:09:07;;;;;;;7.32;2.70;;;;;;;;;;5028118;28;20052;-83
2023/04/13 01:11:44;;;;;;;6.05;2.47;;;;;;;;;;5030565;28;20037;-83
2023/04/13 01:14:39;;;;;;;7.93;2.95;;;;;;;;;;5047751;28;20046;-83
2023/04/13 01:17:22;;;;;;;9.90;2.78;;;;;;;;;;5013047;28;20141;-83
2023/04/13 01:19:58;;;;;;;5.15;2.40;;;;;;;;;;5019572;28;20140;-83
2023/04/13 01:23:00;;;;;;;4.40;2.53;;;;;;;;;;5021436;28;20033;-83
2023/04/13 01:25:57;;;;;;;8.63;2.97;;;;;;;;;;5006390;28;20044;-83
2023/04/13 01:28:50;;;;;;;7.03;2.70;;;;;;;;;;5018613;28;20037;-83
2023/04/13 01:31:19;;;;;;;5.05;2.47;;;;;;;;;;5021568;28;20142;-83
2023/04/13 01:34:12;;;;;;;7.53;3.00;;;;;;;;;;5021376;28;20032;-83
2023/04/13 01:36:40;;;;;;;9.02;3.28;;;;;;;;;;5001429;28;20041;-83
2023/04/13 01:39:18;;;;;;;7.65;3.13;;;;;;;;;;5012099;28;20041;-83
2023/04/13 01:41:48;;;;;;;11.57;3.30;;;;;;;;;;5017055;28;20064;-83
2023/04/13 01:44:15;;;;;;;9.05;3.13;;;;;;;;;;5038829;28;20045;-82
2023/04/13 01:47:17;;;;;;;10.55;3.45;;;;;;;;;;5020377;28;20037;-84
2023/04/13 01:50:00;;;;;;;6.15;3.08;;;;;;;;;;5007292;28;20056;-83
2023/04/13 01:52:49;;;;;;;7.60;3.10;;;;;;;;;;5023161;28;20033;-83
2023/04/13 01:55:18;;;;;;;5.80;3.25;;;;;;;;;;5027152;28;20495;-82
2023/04/13 01:57:54;;;;;;;6.20;3.10;;;;;;;;;;5028256;28;20057;-83
2023/04/13 02:00:31;;;;;;;8.05;3.28;;;;;;;;;;5022687;28;20072;-83
2023/04/13 02:02:59;;;;;;;8.73;3.50;;;;;;;;;;5024082;28;20053;-83
2023/04/13 02:05:27;;;;;;;6.90;3.42;;;;;;;;;;5026909;28;20033;-83
2023/04/13 02:07:55;;;;;;;5.55;3.25;;;;;;;;;;5026425;28;20060;-83
2023/04/13 02:10:25;;;;;;;14.15;3.65;;;;;;;;;;5004950;28;20038;-83
2023/04/13 02:12:54;;;;;;;10.85;4.15;;;;;;;;;;5013410;28;20037;-83
2023/04/13 02:15:21;;;;;;;9.95;3.85;;;;;;;;;;5019667;28;20048;-83
2023/04/13 02:18:13;;;;;;;9.55;3.97;;;;;;;;;;5012783;28;20072;-83
2023/04/13 02:20:45;;;;;;;10.85;4.38;;;;;;;;;;5022107;28;20041;-83
2023/04/13 02:23:13;;;;;;;8.93;4.10;;;;;;;;;;5051056;28;20511;-83
2023/04/13 02:25:45;;;;;;;9.82;3.90;;;;;;;;;;5028127;28;20052;-83
2023/04/13 02:28:17;;;;;;;9.05;3.88;;;;;;;;;;5033527;28;20053;-83
2023/04/13 02:30:45;;;;;;;7.60;3.75;;;;;;;;;;5018279;28;20602;-83
2023/04/13 02:33:13;;;;;;;9.40;3.67;;;;;;;;;;5022240;28;20099;-83
2023/04/13 02:35:41;;;;;;;8.13;3.60;;;;;;;;;;5029464;28;20035;-83
2023/04/13 02:38:10;;;;;;;11.38;3.78;;;;;;;;;;5024951;28;20042;-83
2023/04/13 02:40:48;;;;;;;10.15;4.43;;;;;;;;;;5034352;28;20045;-83
2023/04/13 02:43:20;;;;;;;8.82;3.70;;;;;;;;;;5009834;28;20049;-83
2023/04/13 02:45:54;;;;;;;10.00;4.10;;;;;;;;;;5022781;28;20392;-83
2023/04/13 02:48:25;;;;;;;10.98;4.32;;;;;;;;;;5024471;28;20055;-83
2023/04/13 02:50:55;;;;;;;9.50;4.20;;;;;;;;;;5023167;28;20111;-83
2023/04/13 02:53:27;;;;;;;11.30;3.95;;;;;;;;;;5022978;28;20033;-83
2023/04/13 02:55:59;;;;;;;8.43;3.95;;;;;;;;;;5017422;28;20566;-83
2023/04/13 02:58:30;;;;;;;8.63;4.03;;;;;;;;;;5026852;28;20175;-83
2023/04/13 03:01:01;;;;;;;12.60;4.53;;;;;;;;;;5014000;28;20060;-83
2023/04/13 03:03:55;;;;;;;11.15;4.63;;;;;;;;;;5041588;28;20140;-83
2023/04/13 03:06:25;;;;;;;9.40;3.80;;;;;;;;;;5010260;28;20044;-83
2023/04/13 03:08:58;;;;;;;9.90;4.15;;;;;;;;;;5025682;28;20172;-83
2023/04/13 03:11:51;;;;;;;11.85;4.18;;;;;;;;;;5025534;28;20033;-83
2023/04/13 03:14:28;;;;;;;13.10;4.75;;;;;;;;;;5022683;28;20703;-83
2023/04/13 03:17:11;;;;;;;10.32;4.35;;;;;;;;;;5042845;28;20521;-83
2023/04/13 03:19:45;;;;;;;10.25;4.63;;;;;;;;;;5017947;28;20053;-82
2023/04/13 03:22:38;;;;;;;9.75;4.28;;;;;;;;;;5033044;28;20040;-83
2023/04/13 03:25:08;;;;;;;13.27;4.53;;;;;;;;;;5049377;28;20130;-83
2023/04/13 03:27:37;;;;;;;11.90;4.90;;;;;;;;;;5034843;28;20504;-83
2023/04/13 03:30:06;;;;;;;11.55;4.32;;;;;;;;;;5034023;28;20029;-83
2023/04/13 03:32:41;;;;;;;15.98;4.75;;;;;;;;;;5019183;28;20049;-83
2023/04/13 03:35:10;;;;;;;11.57;4.20;;;;;;;;;;5034997;28;20395;-83
2023/04/13 03:37:42;;;;;;;11.68;4.57;;;;;;;;;;5033289;28;20041;-83
2023/04/13 03:40:27;;;;;;;9.52;4.28;;;;;;;;;;5032189;28;20116;-83
2023/04/13 03:42:55;;;;;;;9.18;4.40;;;;;;;;;;5028829;28;20087;-82
2023/04/13 03:45:58;;;;;;;10.07;4.53;;;;;;;;;;5033223;28;20484;-83
2023/04/13 03:48:54;;;;;;;11.13;4.53;;;;;;;;;;5049700;28;20450;-83
2023/04/13 03:51:27;;;;;;;8.57;4.38;;;;;;;;;;5049804;28;20440;-83
2023/04/13 03:54:20;;;;;;;11.18;4.35;;;;;;;;;;5031093;28;20041;-83
2023/04/13 03:56:47;;;;;;;10.73;4.40;;;;;;;;;;5031308;28;20030;-83
2023/04/13 03:59:19;;;;;;;11.43;5.00;;;;;;;;;;5015547;28;20082;-83
2023/04/13 04:01:47;;;;;;;12.70;5.88;;;;;;;;;;5029962;28;20048;-83
2023/04/13 04:04:15;;;;;;;11.82;4.63;;;;;;;;;;5020024;28;20037;-83
2023/04/13 04:06:44;;;;;;;14.93;5.53;;;;;;;;;;5031564;28;20076;-83
2023/04/13 04:09:13;;;;;;;16.73;4.78;;;;;;;;;;5031992;28;20518;-83
2023/04/13 04:11:45;;;;;;;16.33;5.57;;;;;;;;;;5033370;28;20045;-83
2023/04/13 04:14:25;;;;;;;13.25;5.18;;;;;;;;;;5032230;28;20041;-83
2023/04/13 04:17:41;;;;;;;10.85;5.00;;;;;;;;;;5048587;28;20097;-82
2023/04/13 04:20:33;;;;;;;10.05;4.25;;;;;;;;;;5035300;28;20053;-83
2023/04/13 04:23:27;;;;;;;11.70;5.05;;;;;;;;;;5045283;28;20033;-83
2023/04/13 04:26:01;;;;;;;13.43;5.15;;;;;;;;;;5032212;28;20063;-83
2023/04/13 04:29:01;;;;;;;12.75;4.93;;;;;;;;;;5032078;28;20032;-83
2023/04/13 04:31:33;;;;;;;15.48;6.18;;;;;;;;;;5033719;28;20505;-83
2023/04/13 04:34:05;;;;;;;13.48;5.30;;;;;;;;;;5036304;28;20063;-82
2023/04/13 04:36:40;;;;;;;15.98;5.88;;;;;;;;;;5048872;28;20410;-83
2023/04/13 04:39:13;;;;;;;14.07;5.63;;;;;;;;;;5018659;28;20495;-83
2023/04/13 04:42:02;;;;;;;14.80;5.95;;;;;;;;;;5018903;28;20835;-83
2023/04/13 04:44:55;;;;;;;13.50;6.05;;;;;;;;;;5033814;28;20120;-83
2023/04/13 04:47:51;;;;;;;17.80;6.18;;;;;;;;;;5033482;28;20380;-83
2023/04/13 04:50:45;;;;;;;17.55;5.15;;;;;;;;;;5033742;28;20500;-83
2023/04/13 04:53:15;;;;;;;15.05;6.25;;;;;;;;;;5031496;28;20041;-83
2023/04/13 04:58:47;;;;;;;12.68;5.25;;;;;;;;;;5037136;28;20063;-82
2023/04/13 05:01:16;;;;;;;15.50;5.50;;;;;;;;;;5030080;28;20037;-82
2023/04/13 05:03:45;;;;;;;16.50;5.70;;;;;;;;;;5032471;28;20499;-83
2023/04/13 05:06:40;;;;;;;11.32;4.68;;;;;;;;;;5006218;28;20115;-83
2023/04/13 05:09:12;;;;;;;16.17;6.03;;;;;;;;;;5004163;28;20041;-82
2023/04/13 05:11:45;;;;;;;14.57;5.35;;;;;;;;;;5016764;28;20037;-83
2023/04/13 05:14:14;;;;;;;11.82;5.45;;;;;;;;;;5020237;28;20077;-83
2023/04/13 05:16:47;;;;;;;13.02;5.43;;;;;;;;;;5030608;28;20037;-83
2023/04/13 05:19:39;;;;;;;14.77;5.07;;;;;;;;;;5023300;28;20056;-83
2023/04/13 05:22:15;;;;;;;17.10;5.82;;;;;;;;;;5010007;28;20058;-83
2023/04/13 05:25:40;;;;;;;13.93;5.90;;;;;;;;;;5030986;28;20049;-85
2023/04/13 05:29:28;;;;;;;14.55;5.57;;;;;;;;;;5033485;28;20045;-86
2023/04/13 05:32:23;;;;;;;18.00;5.88;;;;;;;;;;5020198;28;20096;-85
2023/04/13 05:34:53;;;;;;;13.20;5.10;;;;;;;;;;5012829;28;20858;-83
2023/04/13 05:37:31;;;;;;;14.77;5.85;;;;;;;;;;5019702;28;20503;-84
2023/04/13 05:40:13;;;;;;;12.98;5.85;;;;;;;;;;5031210;28;20129;-84
2023/04/13 05:42:59;;;;;;;16.23;5.90;;;;;;;;;;5037877;28;21780;-84
2023/04/13 05:45:57;;;;;;;13.23;5.55;;;;;;;;;;5002486;28;20060;-84
2023/04/13 05:48:43;;;;;;;15.45;5.72;;;;;;;;;;5014012;28;20042;-83
2023/04/13 05:51:29;;;;;;;15.60;6.07;;;;;;;;;;5019979;28;20095;-83
2023/04/13 05:54:13;;;;;;;16.33;5.40;;;;;;;;;;5016458;28;20084;-84
2023/04/13 05:56:47;;;;;;;12.52;5.25;;;;;;;;;;5023830;28;20499;-84
2023/04/13 05:59:43;;;;;;;13.63;5.55;;;;;;;;;;5031708;28;20040;-84
2023/04/13 06:02:49;;;;;;;15.57;4.93;;;;;;;;;;5031135;28;20434;-84
2023/04/13 06:05:37;;;;;;;11.68;5.65;;;;;;;;;;5019957;28;20065;-84
2023/04/13 06:08:43;;;;;;;18.15;5.22;;;;;;;;;;5046474;28;20401;-83
2023/04/13 06:11:26;;;;;;;13.70;5.93;;;;;;;;;;5037666;28;20411;-85
2023/04/13 06:14:01;;;;;;;12.80;5.30;;;;;;;;;;5052034;28;20551;-84
2023/04/13 06:16:45;;;;;;;11.52;5.43;;;;;;;;;;5047696;28;20036;-86
2023/04/13 06:35:16;;;;;;;12.77;5.28;;;;;;;;;;4943466;28;20052;-85
2023/04/13 06:48:57;;;;;;;11.52;3.88;;;;;;;;;;4952719;28;20130;-86
2023/04/13 06:53:28;;;;;;;7.88;4.03;;;;;;;;;;4904953;29;20060;-86
2023/04/13 06:57:22;;;;;;;9.75;3.35;;;;;;;;;;4883017;29;20475;-85
2023/04/13 07:01:07;;;;;;;7.72;2.97;;;;;;;;;;4922851;29;20866;-86
2023/04/13 07:04:59;;;;;;;6.50;2.78;;;;;;;;;;4924350;29;20135;-86
2023/04/13 07:08:51;;;;;;;6.55;3.15;;;;;;;;;;4934428;29;20047;-84
2023/04/13 07:11:55;;;;;;;10.38;3.05;;;;;;;;;;4940024;29;20150;-84
2023/04/13 07:19:54;;;;;;;7.07;2.55;;;;;;;;;;4938800;28;20047;-84
2023/04/13 07:22:41;;;;;;;5.05;2.42;;;;;;;;;;4943203;28;20066;-83
2023/04/13 07:25:23;;;;;;;6.03;2.53;;;;;;;;;;4969366;28;20081;-83
2023/04/13 07:28:24;;;;;;;5.18;1.95;;;;;;;;;;4987644;28;20089;-83
2023/04/13 07:33:59;;;;;;;5.13;2.00;;;;;;;;;;5038562;28;20167;-84
2023/04/13 07:36:45;;;;;;;6.53;2.22;;;;;;;;;;5027165;28;20064;-84
2023/04/13 07:39:27;;;;;;;5.07;1.85;;;;;;;;;;5027592;28;20092;-84
2023/04/13 07:41:56;;;;;;;3.70;1.85;;;;;;;;;;5053643;28;20044;-84
2023/04/13 07:44:33;;;;;;;5.53;1.45;;;;;;;;;;5028329;28;20049;-84
2023/04/13 07:47:03;;;;;;;3.65;1.38;;;;;;;;;;5034754;28;20033;-84
2023/04/13 07:50:01;;;;;;;3.30;1.40;;;;;;;;;;5034980;28;20541;-85
2023/04/13 07:52:29;;;;;;;3.80;1.48;;;;;;;;;;5037173;28;20103;-84
2023/04/13 07:55:07;;;;;;;5.30;1.85;;;;;;;;;;5038148;28;20065;-84
2023/04/13 07:57:51;;;;;;;3.42;1.30;;;;;;;;;;5018782;28;20215;-84
2023/04/13 08:00:38;;;;;;;3.17;1.58;;;;;;;;;;5053214;28;20070;-84
2023/04/13 08:03:09;;;;;;;3.30;1.23;;;;;;;;;;5038081;28;20045;-84
2023/04/13 08:05:51;;;;;;;2.60;1.10;;;;;;;;;;5024614;28;20040;-84
2023/04/13 08:08:21;;;;;;;3.85;1.38;;;;;;;;;;5020691;28;24811;-84
2023/04/13 08:10:52;;;;;;;4.07;1.20;;;;;;;;;;5024992;28;20863;-84
2023/04/13 08:13:22;;;;;;;2.72;1.00;;;;;;;;;;5023041;28;20041;-84
2023/04/13 08:16:07;;;;;;;2.55;1.17;;;;;;;;;;5020321;28;20040;-83
2023/04/13 08:18:49;;;;;;;2.55;1.52;;;;;;;;;;5021875;28;20060;-83
2023/04/13 08:21:28;;;;;;;5.68;1.33;;;;;;;;;;5052704;28;20061;-84
2023/04/13 08:24:45;;;;;;;3.97;1.45;;;;;;;;;;5033067;28;20040;-84
2023/04/13 08:27:34;;;;;;;3.20;1.17;;;;;;;;;;5030265;28;20483;-84
2023/04/13 08:30:16;;;;;;;5.28;1.65;;;;;;;;;;5040624;28;20487;-84
2023/04/13 08:33:23;;;;;;;4.15;1.63;;;;;;;;;;5039854;28;20072;-84
2023/04/13 08:37:02;;;;;;;2.42;1.10;;;;;;;;;;5031307;28;20044;-85
2023/04/13 08:41:15;;;;;;;3.53;1.20;;;;;;;;;;4975712;28;20583;-85
2023/04/13 08:44:07;;;;;;;2.38;1.33;;;;;;;;;;5019359;28;20353;-85
2023/04/13 08:46:52;;;;;;;3.00;1.40;;;;;;;;;;5022605;28;20058;-84
2023/04/13 08:49:40;;;;;;;6.53;1.75;;;;;;;;;;4993895;28;20467;-84
2023/04/13 08:52:50;;;;;;;2.90;1.45;;;;;;;;;;5026650;28;20045;-84
2023/04/13 08:55:31;;;;;;;4.30;1.30;;;;;;;;;;5034524;28;20053;-84
2023/04/13 08:58:19;;;;;;;3.85;1.30;;;;;;;;;;5022056;28;20079;-84
2023/04/13 09:01:03;;;;;;;2.20;1.00;;;;;;;;;;5012742;28;20172;-84
2023/04/13 09:04:02;;;;;;;4.47;1.38;;;;;;;;;;5029882;28;20057;-84
2023/04/13 09:07:16;;;;;;;2.67;1.17;;;;;;;;;;5007048;28;20597;-84
2023/04/13 09:10:30;;;;;;;5.32;1.52;;;;;;;;;;5020815;28;20053;-84
2023/04/13 09:13:17;;;;;;;3.83;1.20;;;;;;;;;;5039598;28;20037;-84
2023/04/13 09:16:11;;;;;;;4.07;1.50;;;;;;;;;;5033322;28;20037;-84
2023/04/13 09:19:08;;;;;;;6.63;1.48;;;;;;;;;;5025202;28;20037;-84
2023/04/13 09:21:49;;;;;;;4.72;1.20;;;;;;;;;;5031794;28;20053;-85
2023/04/13 09:24:39;;;;;;;1.95;1.17;;;;;;;;;;5034972;28;20041;-84
2023/04/13 09:27:24;;;;;;;3.35;1.15;;;;;;;;;;5034404;28;20048;-84
2023/04/13 09:30:06;;;;;;;5.15;1.63;;;;;;;;;;5035191;28;20045;-84
2023/04/13 09:33:09;;;;;;;2.63;1.15;;;;;;;;;;5031909;28;20044;-84
2023/04/13 09:35:51;;;;;;;2.33;1.08;;;;;;;;;;5021722;28;20045;-85
2023/04/13 09:38:33;;;;;;;2.45;0.95;;;;;;;;;;5036627;28;20041;-84
2023/04/13 09:41:15;;;;;;;1.98;1.10;;;;;;;;;;5037482;28;20481;-84
2023/04/13 09:44:15;;;;;;;3.40;1.10;;;;;;;;;;5018711;28;20111;-84
2023/04/13 09:47:02;;;;;;;2.22;0.88;;;;;;;;;;5048636;28;20127;-84
2023/04/13 09:50:27;;;;;;;2.55;1.25;;;;;;;;;;5046626;28;20041;-84
2023/04/13 09:53:15;;;;;;;2.10;1.05;;;;;;;;;;4997608;28;20053;-85
2023/04/13 09:56:08;;;;;;;3.78;1.00;;;;;;;;;;5018374;28;20045;-84
2023/04/13 10:00:06;;;;;;;2.92;1.00;;;;;;;;;;5010923;28;20045;-85
2023/04/13 10:03:00;;;;;;;4.70;1.20;;;;;;;;;;5018726;28;20057;-85
2023/04/13 10:05:42;;;;;;;2.60;1.10;;;;;;;;;;4995870;28;20038;-84
2023/04/13 10:09:26;;;;;;;3.42;1.17;;;;;;;;;;5019124;28;20069;-84
2023/04/13 10:13:19;;;;;;;2.67;0.88;;;;;;;;;;5034162;28;20136;-84
2023/04/13 10:16:54;;;;;;;5.10;0.93;;;;;;;;;;5025322;28;20171;-84
2023/04/13 10:20:12;;;;;;;3.30;1.40;;;;;;;;;;5024184;28;20084;-85
2023/04/13 10:23:19;;;;;;;5.32;0.88;;;;;;;;;;5039506;28;20105;-84
2023/04/13 10:26:03;;;;;;;3.47;1.27;;;;;;;;;;5033521;28;20041;-83
2023/04/13 10:28:55;;;;;;;2.30;1.20;;;;;;;;;;5040660;28;20033;-83
2023/04/13 10:38:00;;;;;;;4.47;1.17;;;;;;;;;;5029850;28;20041;-84
2023/04/13 10:42:35;;;;;;;4.05;1.23;;;;;;;;;;4954369;28;20051;-84
2023/04/13 10:45:43;;;;;;;2.30;1.10;;;;;;;;;;4960063;28;20707;-84
2023/04/13 10:48:26;;;;;;;2.40;1.27;;;;;;;;;;4952869;28;20063;-85
2023/04/13 10:51:07;;;;;;;4.00;1.30;;;;;;;;;;4951869;28;20150;-85
2023/04/13 10:53:49;;;;;;;3.65;1.20;;;;;;;;;;4964292;28;20207;-85
2023/04/13 11:00:35;;;;;;;2.70;1.33;;;;;;;;;;4969299;28;20196;-84
2023/04/13 11:03:40;;;;;;;3.00;1.35;;;;;;;;;;4962823;28;20047;-84
2023/04/13 11:06:51;;;;;;;3.20;1.20;;;;;;;;;;4944621;28;20135;-85
2023/04/13 11:09:33;;;;;;;3.30;1.20;;;;;;;;;;4932418;28;20043;-85
2023/04/13 11:12:25;;;;;;;4.30;1.17;;;;;;;;;;4948498;28;20054;-85
2023/04/13 11:15:08;;;;;;;4.80;0.98;;;;;;;;;;4944457;28;20048;-85
2023/04/13 11:19:33;;;;;;;4.40;1.13;;;;;;;;;;4929815;28;20051;-84
2023/04/13 11:23:01;;;;;;;1.33;0.88;;;;;;;;;;4955529;28;20165;-84
2023/04/13 11:26:00;;;;;;;2.42;1.00;;;;;;;;;;4941979;28;20055;-83
2023/04/13 11:28:52;;;;;;;4.22;1.10;;;;;;;;;;4955475;28;20051;-84
2023/04/13 11:31:36;;;;;;;;;;;;;;;;;;4965428;28;20137;-85
2023/04/13 11:34:25;;;;;;;4.68;1.00;;;;;;;;;;4984528;28;19925;-86
2023/04/13 11:37:07;;;;;;;1.80;0.93;;;;;;;;;;5003162;28;21291;-85
2023/04/13 11:39:56;;;;;;;2.80;1.00;;;;;;;;;;4998676;28;20042;-85
2023/04/13 11:43:05;;;;;;;4.18;1.00;;;;;;;;;;5010031;28;20046;-85
2023/04/13 11:45:47;;;;;;;4.07;0.80;;;;;;;;;;4982922;28;20483;-85
2023/04/13 11:49:53;;;;;;;4.10;0.93;;;;;;;;;;4994018;28;20513;-84
2023/04/13 11:53:41;;;;;;;5.00;1.30;;;;;;;;;;4988666;28;20505;-84
2023/04/13 11:57:01;;;;;;;1.98;0.90;;;;;;;;;;4996565;28;20568;-84
2023/04/13 12:00:00;;;;;;;3.40;1.20;;;;;;;;;;5000720;28;20054;-84
2023/04/13 12:02:41;;;;;;;2.97;1.40;;;;;;;;;;4999693;28;20053;-83
2023/04/13 12:05:28;;;;;;;2.78;1.55;;;;;;;;;;4984234;28;20061;-84
2023/04/13 12:08:22;;;;;;;3.30;1.35;;;;;;;;;;4990105;28;20053;-84
2023/04/13 12:11:10;;;;;;;3.30;1.25;;;;;;;;;;5032870;28;20136;-85
2023/04/13 12:13:57;;;;;;;3.55;1.05;;;;;;;;;;5023227;28;20051;-84
2023/04/13 12:16:47;;;;;;;3.60;1.38;;;;;;;;;;5057050;28;20041;-85
2023/04/13 12:19:57;;;;;;;3.55;1.38;;;;;;;;;;5048334;28;20048;-85
2023/04/13 12:23:02;;;;;;;3.42;1.20;;;;;;;;;;5041075;28;20052;-84
2023/04/13 12:26:04;;;;;;;2.05;1.23;;;;;;;;;;5051812;28;20045;-84
2023/04/13 12:28:36;;;;;;;4.22;1.35;;;;;;;;;;5038357;28;20116;-84
2023/04/13 12:31:24;;;;;;;2.25;1.23;;;;;;;;;;5034725;28;20037;-83
2023/04/13 12:34:06;;;;;;;3.55;1.20;;;;;;;;;;5033538;28;20053;-84
2023/04/13 12:37:48;;;;;;;1.80;1.00;;;;;;;;;;5046924;28;20047;-84
2023/04/13 12:40:33;;;;;;;3.92;1.10;;;;;;;;;;5022219;28;20052;-84
2023/04/13 12:43:15;;;;;;;2.17;1.00;;;;;;;;;;5008221;28;20048;-84
2023/04/13 12:49:36;;;;;;;2.63;1.40;;;;;;;;;;5038269;28;20114;-84
2023/04/13 12:52:57;;;;;;;3.35;1.85;;;;;;;;;;5024265;28;20118;-84
2023/04/13 12:55:59;;;;;;;4.03;1.40;;;;;;;;;;5042541;28;20136;-83
2023/04/13 12:58:41;;;;;;;2.72;1.20;;;;;;;;;;5032837;28;20047;-83
2023/04/13 13:01:28;;;;;;;2.67;1.20;;;;;;;;;;5037413;28;20037;-83
2023/04/13 13:04:13;;;;;;;2.78;1.05;;;;;;;;;;5030165;28;20045;-84
2023/04/13 13:07:48;;;;;;;2.95;1.30;;;;;;;;;;5033875;28;20041;-83
2023/04/13 13:10:52;;;;;;;2.00;1.17;;;;;;;;;;5039569;28;20130;-84
2023/04/13 13:13:33;;;;;;;2.47;1.48;;;;;;;;;;5034237;28;20068;-84
2023/04/13 13:16:16;;;;;;;3.17;1.35;;;;;;;;;;5037448;28;20500;-84
2023/04/13 13:19:21;;;;;;;3.90;1.67;;;;;;;;;;5037348;28;20036;-84
2023/04/13 13:22:03;;;;;;;4.15;1.42;;;;;;;;;;5035044;28;20053;-84
2023/04/13 13:25:09;;;;;;;4.35;1.50;;;;;;;;;;5045148;28;20052;-84
2023/04/13 13:27:39;;;;;;;2.63;1.40;;;;;;;;;;5037683;28;20045;-84
2023/04/13 13:30:22;;;;;;;2.55;1.42;;;;;;;;;;5038108;28;20072;-83
2023/04/13 13:33:22;;;;;;;4.03;1.80;;;;;;;;;;5032412;28;20149;-83
2023/04/13 13:36:10;;;;;;;4.32;1.88;;;;;;;;;;5034079;28;20645;-84
2023/04/13 13:38:51;;;;;;;3.85;2.00;;;;;;;;;;5036486;28;20045;-84
2023/04/13 13:41:33;;;;;;;5.40;1.70;;;;;;;;;;5038226;28;20118;-84
2023/04/13 13:44:19;;;;;;;4.25;1.80;;;;;;;;;;5032064;28;20106;-84
2023/04/13 13:47:01;;;;;;;2.92;1.67;;;;;;;;;;5047738;28;20046;-84
2023/04/13 13:49:39;;;;;;;3.85;2.10;;;;;;;;;;5032562;28;20037;-84
2023/04/13 13:52:37;;;;;;;3.72;1.92;;;;;;;;;;4977368;28;20173;-84
2023/04/13 13:55:23;;;;;;;3.00;1.67;;;;;;;;;;4994830;28;20055;-84
2023/04/13 13:58:06;;;;;;;4.97;1.48;;;;;;;;;;4976436;28;20042;-84
2023/04/13 14:01:11;;;;;;;2.80;1.55;;;;;;;;;;4989101;28;20053;-84
2023/04/13 14:04:07;;;;;;;2.47;1.48;;;;;;;;;;4995889;28;20062;-83
2023/04/13 14:06:53;;;;;;;3.70;1.70;;;;;;;;;;4995609;28;20157;-83
2023/04/13 14:09:35;;;;;;;3.47;2.15;;;;;;;;;;4995041;28;20138;-83
2023/04/13 14:12:44;;;;;;;2.33;1.40;;;;;;;;;;4993809;28;20058;-84
2023/04/13 14:15:18;;;;;;;3.13;1.45;;;;;;;;;;4988582;28;20107;-83
2023/04/13 14:18:11;;;;;;;4.80;1.40;;;;;;;;;;4981168;28;20130;-83
2023/04/13 14:20:43;;;;;;;3.65;1.40;;;;;;;;;;4982376;28;20590;-83
2023/04/13 14:23:16;;;;;;;2.92;1.40;;;;;;;;;;4982183;28;20082;-83
2023/04/13 14:28:42;;;;;;;4.40;1.60;;;;;;;;;;5008832;28;20235;-84
2023/04/13 14:31:13;;;;;;;2.58;1.48;;;;;;;;;;5041381;28;20053;-83
2023/04/13 14:33:44;;;;;;;2.67;1.40;;;;;;;;;;5035041;28;20120;-83
2023/04/13 14:36:18;;;;;;;3.15;1.27;;;;;;;;;;5026713;28;20530;-83
2023/04/13 14:39:09;;;;;;;2.40;1.00;;;;;;;;;;5038461;28;20029;-83
2023/04/13 14:42:28;;;;;;;1.45;0.75;;;;;;;;;;5041711;28;20025;-83
2023/04/13 14:45:01;;;;;;;1.08;0.60;;;;;;;;;;5037199;28;20045;-83
2023/04/13 14:47:29;;;;;;;0.77;0.47;;;;;;;;;;5019996;28;20053;-83
2023/04/13 14:50:24;;;;;;;1.73;0.45;;;;;;;;;;5039990;28;20049;-83
2023/04/13 14:52:57;;;;;;;0.80;0.40;;;;;;;;;;5040238;28;20132;-83
2023/04/13 14:55:26;;;;;;;1.35;0.40;;;;;;;;;;5042656;28;20044;-83
2023/04/13 14:57:54;;;;;;;0.68;0.40;;;;;;;;;;5040476;28;20053;-83
2023/04/13 15:00:25;;;;;;;1.15;0.73;;;;;;;;;;5039742;28;20043;-83
2023/04/13 15:05:48;;;;;;;1.38;0.35;;;;;;;;;;5038861;28;20443;-83
2023/04/13 15:08:18;;;;;;;1.58;0.50;;;;;;;;;;5042188;28;20136;-83
2023/04/13 15:10:45;;;;;;;1.20;0.32;;;;;;;;;;5037941;28;20072;-83
2023/04/13 15:13:13;;;;;;;0.98;0.38;;;;;;;;;;5053043;28;20045;-83
2023/04/13 15:15:47;;;;;;;0.73;0.40;;;;;;;;;;5041694;28;20045;-83
2023/04/13 15:18:19;;;;;;;2.05;0.65;;;;;;;;;;5040165;28;20037;-83
2023/04/13 15:20:53;;;;;;;2.22;0.80;;;;;;;;;;5037739;28;20095;-83
2023/04/13 15:23:21;;;;;;;1.83;1.10;;;;;;;;;;5039150;28;20492;-83
2023/04/13 15:25:49;;;;;;;3.03;1.10;;;;;;;;;;5036538;28;20049;-83
2023/04/13 15:28:17;;;;;;;2.72;1.10;;;;;;;;;;5037627;28;20038;-83
2023/04/13 15:30:45;;;;;;;2.20;1.10;;;;;;;;;;5037221;28;20124;-84
2023/04/13 15:33:39;;;;;;;2.90;1.20;;;;;;;;;;5038884;28;20566;-83
2023/04/13 15:36:13;;;;;;;4.22;1.27;;;;;;;;;;5035474;28;20101;-83
2023/04/13 15:38:42;;;;;;;2.20;1.27;;;;;;;;;;5045729;28;20048;-84
2023/04/13 15:41:39;;;;;;;1.90;1.10;;;;;;;;;;5022750;28;20084;-85
2023/04/13 15:44:25;;;;;;;6.13;1.20;;;;;;;;;;5024063;28;20072;-83
2023/04/13 15:46:59;;;;;;;1.30;0.77;;;;;;;;;;5039673;28;20049;-82
2023/04/13 15:49:31;;;;;;;2.78;1.10;;;;;;;;;;5020411;28;20065;-85
2023/04/13 15:52:01;;;;;;;3.17;1.33;;;;;;;;;;5009214;28;20048;-83
2023/04/13 15:54:29;;;;;;;4.45;1.17;;;;;;;;;;5039509;28;20546;-84
2023/04/13 15:57:06;;;;;;;2.67;1.45;;;;;;;;;;5036326;28;20136;-84
2023/04/13 15:59:35;;;;;;;2.28;1.10;;;;;;;;;;5037215;28;20045;-84
2023/04/13 16:02:07;;;;;;;2.03;0.90;;;;;;;;;;5037600;28;20073;-84
2023/04/13 16:05:50;;;;;;;2.00;1.08;;;;;;;;;;5037557;28;20045;-85
2023/04/13 16:10:03;;;;;;;2.22;1.00;;;;;;;;;;5033802;28;20113;-84
2023/04/13 16:14:16;;;;;;;4.05;1.30;;;;;;;;;;5038276;28;20044;-84
2023/04/13 16:18:34;;;;;;;3.13;1.00;;;;;;;;;;5038234;28;20061;-85
2023/04/13 16:21:09;;;;;;;3.13;1.10;;;;;;;;;;5035877;28;20049;-84
2023/04/13 16:23:53;;;;;;;5.43;1.10;;;;;;;;;;4998765;28;20054;-83
2023/04/13 16:26:36;;;;;;;3.42;1.05;;;;;;;;;;4998533;28;20112;-83
2023/04/13 16:29:06;;;;;;;2.80;1.20;;;;;;;;;;4969789;28;20079;-84
2023/04/13 16:31:57;;;;;;;3.45;1.10;;;;;;;;;;4999217;28;20045;-84
2023/04/13 16:34:50;;;;;;;2.53;0.88;;;;;;;;;;4980706;28;20046;-83
2023/04/13 16:37:17;;;;;;;3.08;1.10;;;;;;;;;;4996167;28;20041;-83
2023/04/13 16:39:46;;;;;;;4.18;1.02;;;;;;;;;;4969349;28;20495;-83
2023/04/13 16:42:15;;;;;;;4.78;0.93;;;;;;;;;;4996815;28;20112;-83
2023/04/13 16:44:43;;;;;;;3.70;0.75;;;;;;;;;;4980243;28;20137;-83
2023/04/13 16:47:11;;;;;;;3.60;1.08;;;;;;;;;;4996184;28;20045;-83
2023/04/13 16:50:09;;;;;;;2.08;0.80;;;;;;;;;;4998195;28;20100;-83
2023/04/13 16:52:38;;;;;;;3.55;0.82;;;;;;;;;;4979171;28;20536;-83
2023/04/13 16:55:15;;;;;;;3.38;1.02;;;;;;;;;;5017690;28;20084;-83
2023/04/13 16:57:44;;;;;;;1.08;0.40;;;;;;;;;;5038359;28;20167;-82
2023/04/13 17:00:13;;;;;;;1.58;0.43;;;;;;;;;;5034393;28;20049;-83
2023/04/13 17:02:47;;;;;;;1.83;0.32;;;;;;;;;;5019271;28;20763;-82
2023/04/13 17:05:15;;;;;;;1.27;0.50;;;;;;;;;;5031668;28;20106;-82
2023/04/13 17:07:47;;;;;;;5.00;0.60;;;;;;;;;;5026194;28;20172;-83
2023/04/13 17:10:17;;;;;;;1.73;0.32;;;;;;;;;;5029667;28;21361;-83
2023/04/13 17:12:49;;;;;;;1.95;0.65;;;;;;;;;;5029044;28;20049;-83
2023/04/13 17:15:18;;;;;;;2.05;0.50;;;;;;;;;;5018122;28;20068;-83
2023/04/13 17:17:56;;;;;;;2.30;0.60;;;;;;;;;;5031444;28;20443;-83
2023/04/13 17:20:24;;;;;;;1.55;0.60;;;;;;;;;;5047920;28;20050;-83
2023/04/13 17:22:52;;;;;;;2.45;0.40;;;;;;;;;;5018153;28;20044;-83
2023/04/13 17:25:19;;;;;;;1.73;0.28;;;;;;;;;;5048955;28;20589;-83
2023/04/13 17:27:47;;;;;;;0.47;0.25;;;;;;;;;;5034315;28;20041;-83
2023/04/13 17:30:31;;;;;;;1.02;0.60;;;;;;;;;;5049592;28;20054;-83
2023/04/13 17:32:59;;;;;;;2.00;0.70;;;;;;;;;;5032270;28;20077;-83
2023/04/13 17:36:04;;;;;;;1.15;0.57;;;;;;;;;;5032252;28;20030;-83